createdAt,value
2016-06-16T00:00:20.959Z,59.86
2016-06-16T00:01:20.963Z,59.56
2016-06-16T00:02:20.966Z,59.44
2016-06-16T00:03:21.016Z,59.56
2016-06-16T00:04:20.971Z,59.86
2016-06-16T00:05:20.974Z,59.56
2016-06-16T00:06:20.978Z,59.56
2016-06-16T00:07:21.012Z,59.76
2016-06-16T00:08:21.000Z,59.76
2016-06-16T00:09:21.003Z,59.47
2016-06-16T00:10:21.052Z,59.56
2016-06-16T00:11:21.009Z,59.56
2016-06-16T00:12:21.012Z,59.56
2016-06-16T00:13:21.031Z,59.38
2016-06-16T00:14:21.033Z,59.56
2016-06-16T00:15:21.036Z,59.53
2016-06-16T00:16:21.056Z,59.47
2016-06-16T00:17:21.043Z,59.66
2016-06-16T00:18:21.061Z,59.47
2016-06-16T00:19:21.065Z,59.47
2016-06-16T00:20:21.068Z,59.63
2016-06-16T00:21:21.086Z,59.47
2016-06-16T00:22:21.074Z,59.56
2016-06-16T00:23:21.092Z,59.66
2016-06-16T00:24:21.095Z,59.47
2016-06-16T00:25:21.114Z,59.76
2016-06-16T00:26:21.117Z,59.47
2016-06-16T00:27:21.120Z,59.66
2016-06-16T00:28:21.123Z,59.76
2016-06-16T00:29:21.126Z,59.47
2016-06-16T00:30:21.505Z,59.66
2016-06-16T00:31:21.149Z,59.56
2016-06-16T00:32:21.152Z,59.56
2016-06-16T00:33:21.154Z,59.66
2016-06-16T00:34:21.158Z,59.47
2016-06-16T00:35:21.176Z,59.76
2016-06-16T00:36:21.179Z,59.53
2016-06-16T00:37:21.182Z,59.56
2016-06-16T00:38:21.185Z,59.47
2016-06-16T00:39:21.188Z,59.56
2016-06-16T00:40:21.191Z,59.66
2016-06-16T00:41:21.211Z,59.56
2016-06-16T00:42:21.213Z,59.63
2016-06-16T00:43:21.216Z,59.66
2016-06-16T00:44:21.236Z,59.53
2016-06-16T00:45:21.239Z,59.28
2016-06-16T00:46:21.241Z,59.56
2016-06-16T00:47:21.245Z,59.44
2016-06-16T00:48:21.248Z,59.53
2016-06-16T00:49:21.266Z,59.66
2016-06-16T00:50:21.269Z,59.66
2016-06-16T00:51:21.272Z,59.66
2016-06-16T00:52:21.291Z,59.73
2016-06-16T00:53:21.278Z,59.66
2016-06-16T00:54:21.297Z,59.66
2016-06-16T00:55:21.301Z,59.63
2016-06-16T00:56:21.303Z,59.47
2016-06-16T00:57:21.307Z,59.47
2016-06-16T00:58:21.325Z,59.44
2016-06-16T00:59:21.328Z,59.25
2016-06-16T01:00:21.330Z,59.66
2016-06-16T01:01:21.334Z,59.47
2016-06-16T01:02:21.353Z,59.63
2016-06-16T01:03:21.403Z,59.63
2016-06-16T01:04:21.359Z,59.38
2016-06-16T01:05:21.362Z,59.86
2016-06-16T01:06:21.365Z,59.63
2016-06-16T01:07:21.384Z,59.56
2016-06-16T01:08:21.388Z,59.56
2016-06-16T01:09:21.390Z,59.47
2016-06-16T01:10:21.456Z,59.66
2016-06-16T01:11:21.256Z,59.76
2016-06-16T01:12:21.462Z,59.53
2016-06-16T01:13:21.261Z,59.83
2016-06-16T01:14:21.265Z,59.86
2016-06-16T01:15:21.440Z,59.38
2016-06-16T01:16:21.443Z,59.44
2016-06-16T01:17:21.446Z,59.73
2016-06-16T01:18:21.449Z,59.56
2016-06-16T01:19:21.452Z,59.47
2016-06-16T01:20:21.456Z,59.38
2016-06-16T01:21:21.474Z,59.44
2016-06-16T01:22:21.477Z,59.66
2016-06-16T01:23:21.480Z,59.34
2016-06-16T01:24:21.483Z,59.44
2016-06-16T01:25:21.799Z,59.56
2016-06-16T01:26:21.505Z,59.86
2016-06-16T01:27:21.508Z,59.56
2016-06-16T01:28:21.510Z,59.38
2016-06-16T01:29:21.514Z,59.53
2016-06-16T01:30:21.517Z,59.56
2016-06-16T01:31:21.536Z,59.38
2016-06-16T01:32:21.539Z,59.53
2016-06-16T01:33:21.542Z,59.56
2016-06-16T01:34:21.560Z,59.63
2016-06-16T01:35:21.548Z,59.56
2016-06-16T01:36:21.566Z,59.56
2016-06-16T01:37:21.569Z,59.56
2016-06-16T01:38:21.573Z,59.53
2016-06-16T01:39:21.607Z,59.83
2016-06-16T01:40:21.594Z,59.56
2016-06-16T01:41:21.598Z,59.76
2016-06-16T01:42:21.601Z,59.53
2016-06-16T01:43:21.713Z,59.53
2016-06-16T01:44:21.623Z,59.44
2016-06-16T01:45:21.641Z,59.83
2016-06-16T01:46:21.629Z,59.28
2016-06-16T01:47:21.632Z,59.66
2016-06-16T01:48:21.650Z,59.63
2016-06-16T01:49:21.639Z,59.63
2016-06-16T01:50:21.656Z,59.86
2016-06-16T01:51:21.659Z,59.76
2016-06-16T01:52:21.663Z,59.34
2016-06-16T01:53:21.666Z,59.73
2016-06-16T01:54:21.684Z,59.53
2016-06-16T01:55:21.687Z,59.53
2016-06-16T01:56:22.066Z,59.83
2016-06-16T01:57:21.710Z,59.53
2016-06-16T01:58:21.713Z,59.38
2016-06-16T01:59:21.716Z,59.53
2016-06-16T02:00:21.719Z,59.76
2016-06-16T02:01:21.722Z,59.53
2016-06-16T02:02:21.741Z,59.53
2016-06-16T02:03:21.790Z,59.56
2016-06-16T02:04:21.591Z,59.63
2016-06-16T02:05:21.765Z,59.53
2016-06-16T02:06:21.769Z,59.53
2016-06-16T02:07:21.771Z,59.53
2016-06-16T02:08:21.775Z,59.76
2016-06-16T02:09:21.778Z,59.63
2016-06-16T02:10:21.781Z,59.56
2016-06-16T02:11:21.799Z,59.53
2016-06-16T02:12:21.802Z,59.34
2016-06-16T02:13:21.821Z,59.66
2016-06-16T02:14:21.652Z,59.95
2016-06-16T02:15:21.811Z,59.53
2016-06-16T02:16:21.831Z,59.53
2016-06-16T02:17:21.833Z,59.56
2016-06-16T02:18:21.836Z,59.34
2016-06-16T02:19:21.840Z,59.73
2016-06-16T02:20:21.859Z,59.53
2016-06-16T02:21:21.861Z,59.34
2016-06-16T02:22:21.865Z,59.86
2016-06-16T02:23:21.868Z,59.83
2016-06-16T02:24:21.871Z,59.63
2016-06-16T02:25:21.874Z,60.11
2016-06-16T02:26:21.736Z,59.63
2016-06-16T02:27:21.895Z,59.56
2016-06-16T02:28:21.899Z,59.38
2016-06-16T02:29:21.917Z,59.63
2016-06-16T02:30:21.904Z,59.92
2016-06-16T02:31:21.923Z,59.53
2016-06-16T02:32:21.943Z,59.53
2016-06-16T02:33:21.929Z,59.34
2016-06-16T02:34:21.933Z,59.53
2016-06-16T02:35:21.952Z,59.34
2016-06-16T02:36:21.955Z,59.86
2016-06-16T02:37:21.973Z,59.66
2016-06-16T02:38:21.961Z,59.83
2016-06-16T02:39:21.964Z,59.66
2016-06-16T02:40:21.982Z,59.92
2016-06-16T02:41:22.376Z,59.53
2016-06-16T02:42:21.988Z,59.73
2016-06-16T02:43:22.007Z,59.53
2016-06-16T02:44:21.995Z,59.63
2016-06-16T02:45:22.014Z,59.63
2016-06-16T02:46:22.016Z,59.63
2016-06-16T02:47:22.019Z,59.53
2016-06-16T02:48:22.038Z,59.53
2016-06-16T02:49:22.041Z,59.34
2016-06-16T02:50:22.043Z,59.63
2016-06-16T02:51:22.047Z,59.53
2016-06-16T02:52:22.066Z,59.83
2016-06-16T02:53:22.053Z,59.34
2016-06-16T02:54:22.072Z,59.63
2016-06-16T02:55:22.076Z,59.53
2016-06-16T02:56:22.094Z,59.53
2016-06-16T02:57:22.081Z,59.83
2016-06-16T02:58:22.101Z,59.53
2016-06-16T02:59:22.104Z,59.92
2016-06-16T03:00:22.107Z,59.53
2016-06-16T03:01:22.110Z,59.53
2016-06-16T03:02:22.113Z,59.53
2016-06-16T03:03:22.131Z,59.63
2016-06-16T03:04:22.134Z,59.83
2016-06-16T03:05:22.137Z,59.73
2016-06-16T03:06:22.140Z,59.25
2016-06-16T03:07:22.160Z,59.34
2016-06-16T03:08:22.162Z,59.53
2016-06-16T03:09:22.165Z,59.34
2016-06-16T03:10:22.168Z,59.25
2016-06-16T03:11:22.031Z,59.34
2016-06-16T03:12:22.191Z,59.44
2016-06-16T03:13:22.193Z,59.53
2016-06-16T03:14:22.196Z,59.92
2016-06-16T03:15:22.215Z,59.63
2016-06-16T03:16:22.218Z,59.73
2016-06-16T03:17:22.221Z,59.86
2016-06-16T03:18:22.224Z,59.28
2016-06-16T03:19:22.227Z,59.34
2016-06-16T03:20:22.246Z,59.63
2016-06-16T03:21:22.530Z,59.34
2016-06-16T03:22:22.252Z,59.92
2016-06-16T03:23:22.255Z,59.63
2016-06-16T03:24:22.259Z,59.53
2016-06-16T03:25:22.276Z,59.34
2016-06-16T03:26:22.279Z,59.63
2016-06-16T03:27:22.283Z,59.34
2016-06-16T03:28:22.286Z,59.53
2016-06-16T03:29:22.304Z,59.44
2016-06-16T03:30:22.292Z,59.44
2016-06-16T03:31:22.311Z,59.53
2016-06-16T03:32:22.314Z,59.86
2016-06-16T03:33:22.317Z,59.63
2016-06-16T03:34:22.320Z,59.53
2016-06-16T03:35:22.323Z,59.92
2016-06-16T03:36:22.343Z,59.73
2016-06-16T03:37:22.345Z,59.34
2016-06-16T03:38:22.629Z,59.92
2016-06-16T03:39:22.366Z,59.44
2016-06-16T03:40:22.369Z,59.53
2016-06-16T03:41:22.217Z,59.25
2016-06-16T03:42:22.375Z,59.53
2016-06-16T03:43:22.378Z,59.73
2016-06-16T03:44:22.398Z,59.63
2016-06-16T03:45:22.400Z,59.44
2016-06-16T03:46:22.404Z,59.34
2016-06-16T03:47:22.407Z,59.56
2016-06-16T03:48:22.441Z,59.76
2016-06-16T03:49:22.429Z,59.63
2016-06-16T03:50:22.433Z,59.66
2016-06-16T03:51:22.435Z,59.76
2016-06-16T03:52:22.438Z,59.76
2016-06-16T03:53:22.441Z,59.76
2016-06-16T03:54:22.491Z,59.73
2016-06-16T03:55:22.462Z,59.73
2016-06-16T03:56:22.482Z,59.86
2016-06-16T03:57:22.469Z,59.83
2016-06-16T03:58:22.488Z,59.76
2016-06-16T03:59:22.491Z,59.76
2016-06-16T04:00:22.494Z,59.56
2016-06-16T04:01:22.512Z,59.83
2016-06-16T04:02:22.515Z,59.53
2016-06-16T04:03:22.535Z,59.56
2016-06-16T04:04:22.521Z,59.76
2016-06-16T04:05:23.009Z,59.76
2016-06-16T04:06:22.527Z,59.38
2016-06-16T04:07:22.547Z,59.76
2016-06-16T04:08:22.549Z,59.53
2016-06-16T04:09:22.552Z,59.53
2016-06-16T04:10:22.556Z,59.73
2016-06-16T04:11:22.575Z,59.73
2016-06-16T04:12:22.515Z,59.66
2016-06-16T04:13:22.580Z,59.76
2016-06-16T04:14:22.584Z,59.53
2016-06-16T04:15:22.602Z,59.53
2016-06-16T04:16:22.624Z,59.73
2016-06-16T04:17:22.667Z,59.73
2016-06-16T04:18:22.709Z,59.73
2016-06-16T04:19:22.752Z,59.73
2016-06-16T04:20:22.639Z,59.63
2016-06-16T04:21:22.827Z,59.66
2016-06-16T04:22:22.860Z,59.76
2016-06-16T04:23:22.893Z,59.63
2016-06-16T04:24:22.911Z,59.83
2016-06-16T04:25:22.928Z,59.83
2016-06-16T04:26:22.956Z,59.86
2016-06-16T04:27:22.949Z,59.86
2016-06-16T04:28:22.957Z,59.73
2016-06-16T04:29:22.965Z,59.86
2016-06-16T04:30:22.988Z,59.86
2016-06-16T04:31:22.995Z,59.83
2016-06-16T04:32:23.016Z,59.76
2016-06-16T04:33:23.021Z,59.86
2016-06-16T04:34:23.010Z,59.76
2016-06-16T04:35:23.030Z,59.95
2016-06-16T04:36:22.879Z,59.76
2016-06-16T04:37:23.039Z,59.86
2016-06-16T04:38:23.043Z,59.86
2016-06-16T04:39:23.047Z,59.95
2016-06-16T04:40:23.066Z,59.95
2016-06-16T04:41:23.085Z,60.05
2016-06-16T04:42:23.089Z,60.05
2016-06-16T04:43:24.295Z,59.95
2016-06-16T04:44:23.096Z,59.95
2016-06-16T04:45:23.099Z,59.86
2016-06-16T04:46:23.102Z,59.66
2016-06-16T04:47:23.105Z,59.76
2016-06-16T04:48:23.109Z,59.76
2016-06-16T04:49:23.142Z,59.76
2016-06-16T04:50:23.131Z,59.76
2016-06-16T04:51:23.134Z,59.38
2016-06-16T04:52:23.152Z,59.56
2016-06-16T04:53:23.155Z,59.56
2016-06-16T04:54:22.674Z,59.56
2016-06-16T04:55:23.161Z,59.76
2016-06-16T04:56:23.164Z,59.76
2016-06-16T04:57:23.028Z,59.66
2016-06-16T04:58:23.186Z,59.56
2016-06-16T04:59:23.189Z,59.28
2016-06-16T05:00:23.192Z,59.38
2016-06-16T05:01:23.195Z,59.56
2016-06-16T05:02:23.198Z,59.38
2016-06-16T05:03:23.202Z,59.56
2016-06-16T05:04:23.236Z,59.47
2016-06-16T05:05:23.238Z,59.47
2016-06-16T05:06:23.258Z,59.47
2016-06-16T05:07:23.261Z,59.56
2016-06-16T05:08:23.248Z,59.38
2016-06-16T05:09:23.251Z,59.56
2016-06-16T05:10:23.254Z,59.56
2016-06-16T05:11:23.288Z,59.38
2016-06-16T05:12:23.605Z,59.56
2016-06-16T05:13:23.280Z,59.56
2016-06-16T05:14:23.283Z,59.56
2016-06-16T05:15:23.286Z,59.47
2016-06-16T05:16:23.303Z,59.56
2016-06-16T05:17:23.292Z,59.47
2016-06-16T05:18:23.310Z,59.56
2016-06-16T05:19:23.392Z,59.56
2016-06-16T05:20:23.332Z,59.08
2016-06-16T05:21:23.335Z,59.56
2016-06-16T05:22:23.338Z,59.56
2016-06-16T05:23:23.341Z,59.47
2016-06-16T05:24:23.360Z,59.56
2016-06-16T05:25:23.363Z,59.56
2016-06-16T05:26:23.367Z,59.56
2016-06-16T05:27:23.698Z,59.47
2016-06-16T05:28:23.373Z,59.56
2016-06-16T05:29:23.375Z,59.56
2016-06-16T05:30:22.909Z,59.47
2016-06-16T05:31:23.397Z,59.47
2016-06-16T05:32:23.775Z,59.56
2016-06-16T05:33:23.950Z,59.56
2016-06-16T05:34:23.422Z,59.56
2016-06-16T05:35:23.425Z,59.47
2016-06-16T05:36:23.428Z,59.38
2016-06-16T05:37:23.462Z,59.56
2016-06-16T05:38:23.450Z,59.38
2016-06-16T05:39:23.453Z,59.56
2016-06-16T05:40:26.706Z,59.66
2016-06-16T05:41:23.474Z,59.47
2016-06-16T05:42:23.478Z,59.56
2016-06-16T05:43:23.481Z,59.38
2016-06-16T05:44:23.515Z,59.47
2016-06-16T05:45:23.597Z,59.38
2016-06-16T05:46:23.600Z,59.56
2016-06-16T05:47:23.602Z,59.38
2016-06-16T05:48:23.606Z,59.18
2016-06-16T05:49:23.609Z,59.08
2016-06-16T05:50:23.612Z,59.47
2016-06-16T05:51:24.130Z,59.47
2016-06-16T05:52:23.539Z,59.47
2016-06-16T05:53:23.542Z,59.28
2016-06-16T05:54:23.796Z,59.56
2016-06-16T05:55:23.549Z,59.47
2016-06-16T05:56:23.552Z,59.28
2016-06-16T05:57:23.587Z,59.38
2016-06-16T05:58:23.590Z,59.56
2016-06-16T05:59:23.592Z,59.38
2016-06-16T06:00:23.595Z,59.47
2016-06-16T06:01:23.583Z,59.66
2016-06-16T06:02:23.617Z,59.66
2016-06-16T06:03:23.605Z,59.56
2016-06-16T06:04:23.623Z,59.47
2016-06-16T06:05:23.626Z,59.28
2016-06-16T06:06:23.629Z,59.47
2016-06-16T06:07:23.633Z,59.66
2016-06-16T06:08:23.636Z,59.56
2016-06-16T06:09:23.639Z,59.76
2016-06-16T06:10:23.642Z,59.56
2016-06-16T06:11:23.661Z,59.56
2016-06-16T06:12:24.147Z,59.38
2016-06-16T06:13:23.682Z,59.47
2016-06-16T06:14:23.686Z,59.47
2016-06-16T06:15:23.689Z,59.56
2016-06-16T06:16:23.535Z,59.47
2016-06-16T06:17:23.695Z,59.47
2016-06-16T06:18:23.698Z,59.28
2016-06-16T06:19:23.717Z,59.38
2016-06-16T06:20:23.735Z,59.08
2016-06-16T06:21:23.786Z,59.47
2016-06-16T06:22:23.741Z,58.98
2016-06-16T06:23:23.729Z,59.47
2016-06-16T06:24:23.747Z,59.56
2016-06-16T06:25:23.751Z,59.38
2016-06-16T06:26:23.754Z,59.47
2016-06-16T06:27:24.101Z,58.98
2016-06-16T06:28:23.775Z,59.08
2016-06-16T06:29:23.778Z,59.47
2016-06-16T06:30:23.781Z,59.28
2016-06-16T06:31:23.784Z,59.38
2016-06-16T06:32:23.787Z,59.28
2016-06-16T06:33:23.806Z,59.28
2016-06-16T06:34:23.810Z,59.18
2016-06-16T06:35:23.829Z,59.38
2016-06-16T06:36:23.816Z,59.11
2016-06-16T06:37:23.834Z,59.47
2016-06-16T06:38:23.837Z,59.31
2016-06-16T06:39:23.841Z,59.31
2016-06-16T06:40:23.859Z,59.18
2016-06-16T06:41:23.862Z,59.08
2016-06-16T06:42:24.334Z,59.08
2016-06-16T06:43:23.868Z,59.11
2016-06-16T06:44:23.887Z,59.18
2016-06-16T06:45:23.890Z,59.28
2016-06-16T06:46:23.893Z,59.28
2016-06-16T06:47:23.896Z,59.38
2016-06-16T06:48:23.900Z,59.28
2016-06-16T06:49:23.919Z,59.28
2016-06-16T06:50:23.922Z,59.28
2016-06-16T06:51:23.767Z,59.21
2016-06-16T06:52:23.928Z,59.47
2016-06-16T06:53:23.930Z,59.31
2016-06-16T06:54:23.965Z,59.47
2016-06-16T06:55:23.952Z,59.08
2016-06-16T06:56:23.955Z,59.28
2016-06-16T06:57:24.458Z,59.18
2016-06-16T06:58:24.414Z,59.38
2016-06-16T06:59:24.730Z,59.08
2016-06-16T07:00:25.155Z,59.11
2016-06-16T07:01:24.923Z,59.38
2016-06-16T07:02:24.443Z,59.01
2016-06-16T07:03:25.290Z,59.38
2016-06-16T07:04:24.635Z,59.38
2016-06-16T07:05:25.295Z,59.38
2016-06-16T07:06:25.205Z,59.28
2016-06-16T07:07:25.130Z,59.38
2016-06-16T07:08:25.055Z,59.4
2016-06-16T07:09:24.605Z,58.89
2016-06-16T07:10:25.326Z,59.28
2016-06-16T07:11:24.657Z,59.31
2016-06-16T07:12:24.676Z,58.98
2016-06-16T07:13:24.117Z,59.28
2016-06-16T07:14:24.635Z,59.28
2016-06-16T07:15:24.327Z,59.47
2016-06-16T07:16:27.580Z,59.38
2016-06-16T07:17:24.755Z,59.38
2016-06-16T07:18:24.866Z,59.08
2016-06-16T07:19:24.401Z,59.47
2016-06-16T07:20:24.467Z,59.47
2016-06-16T07:21:24.360Z,59.31
2016-06-16T07:22:24.504Z,59.38
2016-06-16T07:23:24.194Z,58.82
2016-06-16T07:24:24.730Z,59.5
2016-06-16T07:25:25.310Z,59.08
2016-06-16T07:26:25.266Z,58.92
2016-06-16T07:27:25.535Z,59.31
2016-06-16T07:28:55.459Z,58.82
2016-06-16T07:29:25.010Z,59.11
2016-06-16T07:30:24.747Z,58.72
2016-06-16T07:31:24.047Z,59.4
2016-06-16T07:32:36.941Z,59.01
2016-06-16T07:33:24.070Z,58.92
2016-06-16T07:34:24.213Z,59.01
2016-06-16T07:48:36.786Z,58.53
2016-06-16T07:48:37.661Z,58.92
2016-06-16T07:48:50.474Z,58.47
2016-06-16T07:49:50.649Z,58.65
2016-06-16T07:50:50.636Z,58.56
2016-06-16T07:51:50.655Z,58.75
2016-06-16T07:52:50.658Z,58.65
2016-06-16T07:53:50.661Z,58.27
2016-06-16T07:54:50.665Z,58.53
2016-06-16T07:55:50.683Z,58.65
2016-06-16T07:56:50.702Z,58.53
2016-06-16T07:57:50.688Z,58.44
2016-06-16T07:58:50.691Z,58.56
2016-06-16T07:59:50.711Z,58.65
2016-06-16T08:00:50.558Z,58.56
2016-06-16T08:01:50.701Z,58.47
2016-06-16T08:02:50.736Z,58.65
2016-06-16T08:03:50.786Z,58.53
2016-06-16T08:04:50.742Z,58.56
2016-06-16T08:05:50.745Z,58.56
2016-06-16T08:06:50.749Z,58.56
2016-06-16T08:07:50.752Z,58.47
2016-06-16T08:08:50.770Z,58.65
2016-06-16T08:09:50.851Z,58.37
2016-06-16T08:10:50.776Z,58.37
2016-06-16T08:11:50.778Z,58.65
2016-06-16T08:12:50.798Z,58.47
2016-06-16T08:13:50.801Z,58.17
2016-06-16T08:14:50.803Z,58.47
2016-06-16T08:15:50.807Z,58.47
2016-06-16T08:16:50.826Z,58.27
2016-06-16T08:17:50.829Z,58.37
2016-06-16T08:18:50.833Z,58.37
2016-06-16T08:19:50.835Z,58.37
2016-06-16T08:20:50.853Z,58.56
2016-06-16T08:21:50.857Z,58.37
2016-06-16T08:22:50.859Z,58.56
2016-06-16T08:23:50.863Z,58.47
2016-06-16T08:24:50.881Z,58.37
2016-06-16T08:25:50.868Z,58.56
2016-06-16T08:26:50.887Z,58.27
2016-06-16T08:27:50.891Z,58.27
2016-06-16T08:28:50.909Z,58.37
2016-06-16T08:29:50.912Z,58.37
2016-06-16T08:30:50.915Z,58.37
2016-06-16T08:31:50.918Z,58.27
2016-06-16T08:32:50.937Z,58.37
2016-06-16T08:33:50.956Z,58.47
2016-06-16T08:34:50.960Z,58.37
2016-06-16T08:35:50.947Z,58.27
2016-06-16T08:36:50.950Z,58.37
2016-06-16T08:37:50.968Z,58.27
2016-06-16T08:38:50.972Z,58.47
2016-06-16T08:39:50.975Z,58.37
2016-06-16T08:40:51.009Z,58.37
2016-06-16T08:41:50.996Z,58.17
2016-06-16T08:42:51.016Z,58.37
2016-06-16T08:43:51.003Z,58.47
2016-06-16T08:44:51.022Z,58.37
2016-06-16T08:45:51.041Z,58.37
2016-06-16T08:46:50.872Z,58.27
2016-06-16T08:47:51.046Z,58.37
2016-06-16T08:48:26.456Z,58.37
2016-06-16T08:49:26.474Z,58.47
2016-06-16T08:50:26.478Z,58.47
2016-06-16T08:51:26.480Z,58.56
2016-06-16T08:52:26.483Z,58.27
2016-06-16T08:53:26.487Z,58.47
2016-06-16T08:54:26.522Z,58.27
2016-06-16T08:55:26.509Z,58.37
2016-06-16T08:56:26.511Z,58.37
2016-06-16T08:57:26.515Z,58.27
2016-06-16T08:58:26.517Z,58.27
2016-06-16T08:59:26.584Z,58.27
2016-06-16T09:00:26.540Z,58.27
2016-06-16T09:01:26.543Z,58.37
2016-06-16T09:02:26.546Z,58.37
2016-06-16T09:03:26.549Z,58.27
2016-06-16T09:04:26.567Z,58.37
2016-06-16T09:05:26.431Z,58.37
2016-06-16T09:06:26.589Z,58.37
2016-06-16T09:07:26.592Z,58.56
2016-06-16T09:08:26.595Z,58.37
2016-06-16T09:09:26.599Z,58.56
2016-06-16T09:10:26.618Z,58.37
2016-06-16T09:11:26.605Z,58.56
2016-06-16T09:12:26.623Z,58.47
2016-06-16T09:13:26.470Z,58.56
2016-06-16T09:14:26.630Z,58.47
2016-06-16T09:15:26.476Z,58.37
2016-06-16T09:16:26.667Z,58.37
2016-06-16T09:17:26.670Z,58.37
2016-06-16T09:18:26.657Z,58.37
2016-06-16T09:19:26.661Z,58.56
2016-06-16T09:20:26.679Z,58.37
2016-06-16T09:21:26.683Z,58.47
2016-06-16T09:22:26.685Z,58.56
2016-06-16T09:23:26.703Z,58.37
2016-06-16T09:24:26.707Z,58.37
2016-06-16T09:25:26.789Z,58.37
2016-06-16T09:26:26.713Z,58.37
2016-06-16T09:27:26.716Z,58.56
2016-06-16T09:28:26.735Z,58.47
2016-06-16T09:29:26.582Z,58.56
2016-06-16T09:30:26.741Z,58.47
2016-06-16T09:31:26.744Z,58.37
2016-06-16T09:32:26.778Z,58.37
2016-06-16T09:33:26.767Z,58.37
2016-06-16T09:34:26.769Z,58.37
2016-06-16T09:35:26.788Z,58.47
2016-06-16T09:36:26.791Z,58.47
2016-06-16T09:37:26.794Z,58.37
2016-06-16T09:38:26.812Z,58.56
2016-06-16T09:39:26.800Z,58.37
2016-06-16T09:40:26.803Z,58.27
2016-06-16T09:41:26.869Z,58.47
2016-06-16T09:42:26.825Z,58.47
2016-06-16T09:43:26.844Z,58.37
2016-06-16T09:44:26.862Z,58.37
2016-06-16T09:45:27.412Z,58.56
2016-06-16T09:46:26.697Z,58.47
2016-06-16T09:47:26.856Z,58.37
2016-06-16T09:48:26.859Z,58.27
2016-06-16T09:49:26.738Z,58.47
2016-06-16T09:50:27.115Z,58.47
2016-06-16T09:51:26.900Z,58.47
2016-06-16T09:52:26.903Z,58.47
2016-06-16T09:53:26.937Z,58.56
2016-06-16T09:54:26.908Z,58.56
2016-06-16T09:55:26.927Z,58.47
2016-06-16T09:56:26.915Z,58.47
2016-06-16T09:57:26.918Z,58.37
2016-06-16T09:58:26.936Z,58.47
2016-06-16T09:59:27.518Z,58.56
2016-06-16T10:00:26.942Z,58.37
2016-06-16T10:01:26.961Z,58.37
2016-06-16T10:02:26.965Z,58.37
2016-06-16T10:03:27.249Z,58.56
2016-06-16T10:04:27.143Z,58.27
2016-06-16T10:05:26.990Z,58.37
2016-06-16T10:06:27.165Z,58.37
2016-06-16T10:07:28.057Z,58.47
2016-06-16T10:08:27.530Z,58.47
2016-06-16T10:09:27.017Z,58.27
2016-06-16T10:10:27.020Z,58.17
2016-06-16T10:11:27.023Z,58.37
2016-06-16T10:12:27.339Z,58.37
2016-06-16T10:13:27.045Z,58.37
2016-06-16T10:14:27.049Z,58.37
2016-06-16T10:15:27.052Z,58.27
2016-06-16T10:16:26.616Z,58.27
2016-06-16T10:17:27.089Z,58.27
2016-06-16T10:18:27.076Z,58.37
2016-06-16T10:19:27.314Z,58.37
2016-06-16T10:20:26.723Z,58.37
2016-06-16T10:21:27.101Z,58.27
2016-06-16T10:22:26.964Z,58.27
2016-06-16T10:23:27.123Z,58.37
2016-06-16T10:24:27.126Z,58.56
2016-06-16T10:25:26.973Z,58.37
2016-06-16T10:26:27.132Z,58.47
2016-06-16T10:27:26.995Z,58.37
2016-06-16T10:28:27.138Z,58.37
2016-06-16T10:29:27.001Z,58.56
2016-06-16T10:30:27.160Z,58.37
2016-06-16T10:31:27.163Z,58.56
2016-06-16T10:32:27.182Z,58.56
2016-06-16T10:33:27.185Z,58.56
2016-06-16T10:34:27.031Z,58.37
2016-06-16T10:35:27.035Z,58.37
2016-06-16T10:36:27.225Z,58.37
2016-06-16T10:37:27.197Z,58.27
2016-06-16T10:38:27.216Z,58.27
2016-06-16T10:39:27.219Z,58.37
2016-06-16T10:40:27.238Z,58.27
2016-06-16T10:41:27.225Z,58.37
2016-06-16T10:42:27.243Z,58.37
2016-06-16T10:43:27.246Z,58.37
2016-06-16T10:44:27.250Z,58.27
2016-06-16T10:45:27.113Z,58.37
2016-06-16T10:46:27.272Z,58.37
2016-06-16T10:47:27.275Z,58.37
2016-06-16T10:48:27.278Z,58.47
2016-06-16T10:49:27.312Z,58.37
2016-06-16T10:50:27.300Z,58.37
2016-06-16T10:51:27.303Z,58.37
2016-06-16T10:52:27.321Z,58.17
2016-06-16T10:53:27.324Z,58.37
2016-06-16T10:54:27.328Z,58.37
2016-06-16T10:55:27.190Z,58.37
2016-06-16T10:56:27.334Z,58.17
2016-06-16T10:57:27.353Z,58.37
2016-06-16T10:58:27.356Z,58.27
2016-06-16T10:59:27.358Z,58.56
2016-06-16T11:00:27.377Z,58.27
2016-06-16T11:01:27.380Z,58.17
2016-06-16T11:02:27.383Z,58.17
2016-06-16T11:03:27.387Z,58.47
2016-06-16T11:04:28.405Z,58.37
2016-06-16T11:07:42.665Z,58.37
2016-06-16T11:09:33.155Z,58.37
2016-06-16T11:09:45.811Z,58.47
2016-06-16T11:10:45.814Z,58.37
2016-06-16T11:11:45.833Z,58.27
2016-06-16T11:13:36.340Z,58.47
2016-06-16T11:13:49.027Z,58.47
2016-06-16T11:14:48.999Z,58.27
2016-06-16T11:15:49.002Z,58.47
2016-06-16T11:16:49.005Z,58.37
2016-06-16T11:17:49.008Z,58.56
2016-06-16T11:18:49.026Z,58.37
2016-06-16T11:19:49.045Z,58.37
2016-06-16T11:20:49.143Z,58.47
2016-06-16T11:21:49.099Z,58.37
2016-06-16T11:22:49.039Z,58.17
2016-06-16T11:23:49.058Z,58.17
2016-06-16T11:24:49.061Z,58.56
2016-06-16T11:25:49.064Z,58.17
2016-06-16T11:26:49.066Z,58.37
2016-06-16T11:27:49.273Z,58.37
2016-06-16T11:28:49.089Z,58.37
2016-06-16T11:29:49.107Z,58.27
2016-06-16T11:30:49.142Z,58.47
2016-06-16T11:31:48.957Z,58.37
2016-06-16T11:32:49.132Z,58.37
2016-06-16T11:33:49.120Z,58.56
2016-06-16T11:34:49.122Z,58.56
2016-06-16T11:35:49.142Z,58.27
2016-06-16T11:36:49.145Z,58.17
2016-06-16T11:37:49.147Z,58.37
2016-06-16T11:38:49.150Z,58.17
2016-06-16T11:39:49.154Z,58.37
2016-06-16T11:40:49.173Z,58.27
2016-06-16T11:41:49.175Z,58.17
2016-06-16T11:42:49.194Z,58.37
2016-06-16T11:43:49.556Z,58.17
2016-06-16T11:44:49.200Z,58.17
2016-06-16T11:45:49.203Z,58.27
2016-06-16T11:46:49.223Z,58.27
2016-06-16T11:47:49.225Z,58.37
2016-06-16T11:48:49.228Z,58.17
2016-06-16T11:49:49.246Z,58.17
2016-06-16T11:50:49.234Z,58.27
2016-06-16T11:51:49.253Z,58.37
2016-06-16T11:52:49.288Z,58.17
2016-06-16T11:53:49.259Z,58.17
2016-06-16T11:54:49.262Z,58.17
2016-06-16T11:55:49.281Z,58.27
2016-06-16T11:56:49.284Z,58.47
2016-06-16T11:57:49.287Z,58.37
2016-06-16T11:58:49.291Z,58.17
2016-06-16T11:59:49.294Z,58.37
2016-06-16T12:00:49.312Z,58.37
2016-06-16T12:01:49.316Z,58.37
2016-06-16T12:02:49.319Z,58.37
2016-06-16T12:03:49.336Z,58.27
2016-06-16T12:04:49.325Z,58.47
2016-06-16T12:05:49.343Z,58.27
2016-06-16T12:06:49.534Z,58.27
2016-06-16T12:07:49.349Z,58.47
2016-06-16T12:08:49.368Z,58.27
2016-06-16T12:09:49.730Z,58.27
2016-06-16T12:10:49.764Z,58.17
2016-06-16T12:11:49.377Z,58.37
2016-06-16T12:12:49.395Z,58.47
2016-06-16T12:13:49.805Z,58.47
2016-06-16T12:14:49.668Z,58.27
2016-06-16T12:15:49.046Z,58.27
2016-06-16T12:16:49.814Z,58.47
2016-06-16T12:17:49.427Z,58.37
2016-06-16T12:18:49.274Z,58.37
2016-06-16T12:19:49.464Z,58.17
2016-06-16T12:20:49.452Z,58.37
2016-06-16T12:21:49.642Z,58.07
2016-06-16T12:22:49.458Z,58.37
2016-06-16T12:23:49.476Z,58.27
2016-06-16T12:24:49.605Z,58.27
2016-06-16T12:25:49.482Z,58.07
2016-06-16T12:26:49.485Z,58.17
2016-06-16T12:27:49.738Z,58.07
2016-06-16T12:28:49.508Z,58.17
2016-06-16T12:29:49.511Z,58.17
2016-06-16T12:30:49.530Z,58.27
2016-06-16T12:31:49.642Z,58.17
2016-06-16T12:32:49.801Z,58.37
2016-06-16T12:33:49.554Z,58.17
2016-06-16T12:34:49.573Z,57.98
2016-06-16T12:35:49.560Z,58.37
2016-06-16T12:36:49.563Z,58.17
2016-06-16T12:37:49.567Z,58.17
2016-06-16T12:38:49.586Z,58.17
2016-06-16T12:39:50.150Z,58.17
2016-06-16T12:40:49.576Z,58.17
2016-06-16T12:41:49.438Z,58.27
2016-06-16T12:42:49.456Z,58.17
2016-06-16T12:43:49.616Z,58.27
2016-06-16T12:44:49.618Z,58.47
2016-06-16T12:45:49.622Z,58.27
2016-06-16T12:46:50.079Z,58.37
2016-06-16T12:47:49.894Z,58.07
2016-06-16T12:48:49.631Z,58.17
2016-06-16T12:49:49.650Z,58.27
2016-06-16T12:50:49.669Z,58.17
2016-06-16T12:51:49.657Z,58.17
2016-06-16T12:52:49.676Z,58.17
2016-06-16T12:58:56.709Z,58.27
2016-06-16T12:59:56.665Z,58.37
2016-06-16T13:00:56.621Z,58.27
2016-06-16T13:01:56.641Z,58.17
2016-06-16T13:02:56.769Z,58.17
2016-06-16T13:03:56.631Z,58.17
2016-06-16T13:04:56.650Z,58.47
2016-06-16T13:05:56.511Z,58.47
2016-06-16T13:06:56.953Z,58.37
2016-06-16T13:07:56.675Z,58.37
2016-06-16T13:08:56.662Z,58.37
2016-06-16T13:09:56.681Z,58.27
2016-06-16T13:10:56.685Z,58.27